Time;durP1;ratioP1;P1;durP2;ratioP2;P2;SDS_P1;SDS_P2;PMS_P1;PMS_P2;Temp;Humidity;BMP_temperature;BMP_pressure;BME280_temperature;BME280_humidity;BME280_pressure;Samples;Min_cycle;Max_cycle;Signal;HPM_P1;HPM_P2
2022/03/15 00:00:35;;;;;;;7.78;0.90;;;23.20;96.60;;;;;;4913065;29;20021;-67
2022/03/15 00:03:02;;;;;;;6.15;0.93;;;23.40;96.10;;;;;;4914055;29;20388;-70
2022/03/15 00:05:30;;;;;;;7.50;0.80;;;23.40;96.10;;;;;;4913954;29;20032;-67
2022/03/15 00:07:57;;;;;;;4.53;0.70;;;23.50;96.00;;;;;;4913833;29;20059;-69
2022/03/15 00:10:25;;;;;;;7.07;1.05;;;23.40;95.80;;;;;;4914130;29;20549;-67
2022/03/15 00:12:52;;;;;;;6.05;0.70;;;23.30;95.90;;;;;;4915039;29;20036;-69
2022/03/15 00:15:20;;;;;;;4.35;0.60;;;23.20;95.80;;;;;;4915490;29;20028;-68
2022/03/15 00:17:47;;;;;;;5.45;0.60;;;23.30;94.30;;;;;;4915644;29;20107;-70
2022/03/15 00:20:18;;;;;;;3.63;0.65;;;23.40;94.20;;;;;;4915514;29;20079;-71
2022/03/15 00:22:47;;;;;;;4.95;0.90;;;23.50;93.80;;;;;;4915133;29;20039;-68
2022/03/15 00:25:16;;;;;;;5.53;0.60;;;23.70;93.60;;;;;;4930655;29;20491;-69
2022/03/15 00:27:51;;;;;;;5.10;0.60;;;23.90;93.30;;;;;;4934149;29;20047;-72
2022/03/15 00:30:23;;;;;;;6.07;0.80;;;24.00;92.60;;;;;;4934113;29;20024;-75
2022/03/15 00:32:51;;;;;;;7.22;0.85;;;24.10;93.40;;;;;;4933823;29;20090;-68
2022/03/15 00:35:20;;;;;;;4.65;0.80;;;24.30;92.50;;;;;;4934085;29;20070;-68
2022/03/15 00:37:50;;;;;;;4.10;0.95;;;24.20;92.70;;;;;;4933772;29;20024;-69
2022/03/15 00:40:18;;;;;;;4.57;0.82;;;24.20;92.90;;;;;;4919253;29;20028;-67
2022/03/15 00:42:52;;;;;;;5.05;0.60;;;24.30;92.90;;;;;;4932032;29;20027;-69
2022/03/15 00:45:24;;;;;;;4.55;0.70;;;24.20;93.30;;;;;;4934330;29;20024;-69
2022/03/15 00:47:52;;;;;;;7.53;1.50;;;24.20;93.70;;;;;;4934400;29;20422;-71
2022/03/15 00:50:21;;;;;;;7.72;0.90;;;24.30;93.60;;;;;;4919141;29;20031;-71
2022/03/15 00:52:51;;;;;;;8.45;1.40;;;24.60;94.60;;;;;;4914962;29;20036;-72
2022/03/15 00:55:19;;;;;;;7.72;1.00;;;24.70;93.80;;;;;;4915056;29;20028;-75
2022/03/15 00:57:47;;;;;;;8.10;0.90;;;24.80;93.70;;;;;;4915026;29;20096;-74
2022/03/15 01:00:16;;;;;;;8.73;1.85;;;24.80;93.30;;;;;;4915369;29;20027;-75
2022/03/15 01:02:44;;;;;;;7.13;1.10;;;24.80;93.80;;;;;;4915369;29;20115;-73
2022/03/15 01:05:11;;;;;;;6.15;0.80;;;24.70;94.60;;;;;;4914611;29;20032;-70
2022/03/15 01:07:38;;;;;;;9.32;2.00;;;24.60;95.70;;;;;;4914677;29;20035;-68
2022/03/15 01:10:07;;;;;;;5.65;1.27;;;24.50;95.90;;;;;;4914756;29;20047;-73
2022/03/15 01:12:34;;;;;;;7.70;1.58;;;24.50;96.10;;;;;;4918639;29;20043;-68
2022/03/15 01:15:02;;;;;;;6.75;1.60;;;24.40;96.30;;;;;;4918934;29;20508;-73
2022/03/15 01:17:29;;;;;;;7.22;0.95;;;24.30;96.10;;;;;;4918919;29;20495;-70
2022/03/15 01:19:56;;;;;;;7.53;1.08;;;24.30;96.40;;;;;;4918915;29;20480;-71
2022/03/15 01:22:24;;;;;;;7.57;1.42;;;24.20;96.70;;;;;;4918645;29;20507;-70
2022/03/15 01:24:51;;;;;;;6.43;1.00;;;24.20;96.80;;;;;;4931455;29;20067;-67
2022/03/15 01:27:19;;;;;;;9.75;1.60;;;24.30;96.90;;;;;;4937512;29;20036;-69
2022/03/15 01:29:46;;;;;;;9.55;1.08;;;24.30;96.40;;;;;;4909579;29;20020;-68
2022/03/15 01:32:16;;;;;;;10.18;1.55;;;24.40;96.10;;;;;;4917987;29;20070;-68
2022/03/15 01:34:43;;;;;;;5.47;1.20;;;24.40;96.50;;;;;;4917542;29;20107;-68
2022/03/15 01:37:11;;;;;;;6.00;1.05;;;24.40;96.40;;;;;;4918106;29;20385;-70
2022/03/15 01:39:38;;;;;;;7.18;1.25;;;24.60;96.70;;;;;;4918094;29;20021;-69
2022/03/15 01:42:06;;;;;;;10.73;1.88;;;24.70;96.10;;;;;;4917572;29;20020;-71
2022/03/15 01:44:33;;;;;;;8.77;1.83;;;24.80;95.70;;;;;;4918196;29;20022;-70
2022/03/15 01:47:01;;;;;;;5.47;0.80;;;24.70;96.00;;;;;;4918096;29;20075;-70
2022/03/15 01:49:28;;;;;;;5.47;1.17;;;24.60;95.30;;;;;;4918057;29;20028;-73
2022/03/15 01:51:56;;;;;;;6.05;1.50;;;24.90;95.40;;;;;;4917895;29;20035;-70
2022/03/15 01:54:24;;;;;;;5.80;1.00;;;24.90;95.20;;;;;;4900835;29;20379;-73
2022/03/15 01:56:51;;;;;;;7.05;1.70;;;25.00;94.70;;;;;;4917738;29;20032;-75
2022/03/15 01:59:19;;;;;;;8.13;1.40;;;25.30;94.80;;;;;;4917978;29;20063;-71
2022/03/15 02:01:46;;;;;;;10.85;1.33;;;25.40;94.40;;;;;;4901173;29;20032;-75
2022/03/15 02:04:15;;;;;;;6.35;0.90;;;25.60;94.00;;;;;;4901214;29;20484;-66
2022/03/15 02:06:44;;;;;;;10.02;1.60;;;25.90;93.70;;;;;;4917853;29;20482;-73
2022/03/15 02:09:13;;;;;;;11.88;1.38;;;26.20;92.70;;;;;;4900316;29;20056;-73
2022/03/15 02:11:42;;;;;;;5.72;1.23;;;26.50;93.10;;;;;;4917541;29;20021;-72
2022/03/15 02:14:10;;;;;;;7.05;0.93;;;26.40;92.00;;;;;;4917632;29;20027;-70
2022/03/15 02:16:38;;;;;;;7.45;1.10;;;26.20;92.20;;;;;;4888621;29;20176;-73
2022/03/15 02:19:05;;;;;;;5.25;0.88;;;26.40;92.10;;;;;;4917582;29;20083;-71
2022/03/15 02:21:36;;;;;;;5.53;0.77;;;26.60;91.70;;;;;;4917788;29;20021;-67
2022/03/15 02:24:06;;;;;;;7.18;0.70;;;26.60;91.50;;;;;;4923581;29;20058;-69
2022/03/15 02:26:33;;;;;;;8.88;0.98;;;26.40;91.20;;;;;;4936561;29;20031;-73
2022/03/15 02:29:00;;;;;;;7.68;1.42;;;26.50;91.20;;;;;;4932055;29;20035;-69
2022/03/15 02:31:28;;;;;;;8.65;0.98;;;26.80;91.10;;;;;;4917764;29;20028;-74
2022/03/15 02:33:55;;;;;;;6.00;0.75;;;26.80;90.70;;;;;;4917400;29;20048;-67
2022/03/15 02:36:23;;;;;;;6.35;0.77;;;26.60;90.90;;;;;;4934414;29;20476;-68
2022/03/15 02:38:50;;;;;;;7.45;0.70;;;26.40;90.90;;;;;;4932839;29;20031;-71
2022/03/15 02:41:17;;;;;;;7.22;0.90;;;26.60;91.00;;;;;;4917373;29;20035;-71
2022/03/15 02:43:46;;;;;;;6.55;0.98;;;26.60;91.70;;;;;;4917126;29;20021;-72
2022/03/15 02:46:13;;;;;;;7.10;0.88;;;26.50;91.00;;;;;;4899462;29;20477;-72
2022/03/15 02:48:41;;;;;;;8.50;1.25;;;26.40;91.00;;;;;;4922604;29;20034;-71
2022/03/15 02:51:08;;;;;;;6.32;1.17;;;26.60;90.90;;;;;;4917634;29;20400;-70
2022/03/15 02:53:39;;;;;;;9.52;1.05;;;26.80;90.80;;;;;;4917649;29;20095;-71
2022/03/15 02:56:11;;;;;;;7.57;1.17;;;27.00;91.00;;;;;;4917696;29;20017;-69
2022/03/15 02:58:39;;;;;;;4.68;1.00;;;27.50;90.50;;;;;;4917201;29;20028;-68
2022/03/15 03:01:08;;;;;;;5.60;1.00;;;27.50;89.10;;;;;;4916969;29;20036;-69
2022/03/15 03:03:36;;;;;;;8.35;1.05;;;27.50;88.50;;;;;;4917133;29;20031;-70
2022/03/15 03:06:04;;;;;;;4.60;1.33;;;27.60;89.00;;;;;;4916811;29;20047;-73
2022/03/15 03:08:32;;;;;;;2.95;0.65;;;28.10;86.70;;;;;;4916527;29;20036;-73
2022/03/15 03:11:00;;;;;;;7.00;1.23;;;28.80;87.40;;;;;;4916445;29;20112;-71
2022/03/15 03:13:28;;;;;;;9.70;1.70;;;29.50;85.20;;;;;;4915457;29;20593;-74
2022/03/15 03:15:59;;;;;;;6.25;0.70;;;29.90;82.20;;;;;;4914686;29;20039;-68
2022/03/15 03:18:32;;;;;;;7.43;1.55;;;29.60;82.30;;;;;;4916582;29;20552;-72
2022/03/15 03:21:01;;;;;;;7.07;0.75;;;29.00;82.60;;;;;;4915269;29;20051;-72
2022/03/15 03:23:29;;;;;;;5.43;0.80;;;28.60;83.50;;;;;;4897996;29;20107;-70
2022/03/15 03:25:56;;;;;;;6.70;1.00;;;29.30;84.10;;;;;;4914906;29;20111;-69
2022/03/15 03:28:24;;;;;;;5.82;1.15;;;29.30;80.00;;;;;;4914241;29;20032;-72
2022/03/15 03:30:52;;;;;;;7.28;0.95;;;28.80;84.50;;;;;;4914480;29;20040;-70
2022/03/15 03:33:21;;;;;;;7.13;1.40;;;28.30;84.70;;;;;;4914312;29;20051;-76
2022/03/15 03:35:52;;;;;;;8.45;0.60;;;28.40;86.20;;;;;;4915794;29;20111;-75
2022/03/15 03:38:19;;;;;;;5.18;0.63;;;29.30;85.10;;;;;;4897892;29;20032;-79
2022/03/15 03:40:47;;;;;;;6.53;0.93;;;30.00;81.00;;;;;;4915864;29;20028;-78
2022/03/15 03:43:14;;;;;;;4.28;0.60;;;30.10;80.70;;;;;;4916364;29;20389;-75
2022/03/15 03:45:41;;;;;;;5.35;1.33;;;30.80;81.30;;;;;;4916930;29;20024;-76
2022/03/15 03:48:09;;;;;;;7.65;1.10;;;31.20;82.10;;;;;;4916535;29;20173;-73
2022/03/15 03:50:37;;;;;;;6.07;1.10;;;32.10;79.20;;;;;;4919545;29;20016;-70
2022/03/15 03:53:05;;;;;;;9.30;1.00;;;32.30;77.20;;;;;;4914856;29;20039;-68
2022/03/15 03:55:32;;;;;;;6.10;1.00;;;31.50;78.60;;;;;;4928468;29;20342;-68
2022/03/15 03:58:00;;;;;;;8.32;0.80;;;30.70;79.10;;;;;;4930619;29;20115;-70
2022/03/15 04:00:28;;;;;;;6.15;1.30;;;29.60;81.10;;;;;;4940677;29;20110;-71
2022/03/15 04:02:59;;;;;;;8.98;1.00;;;29.10;84.00;;;;;;4934957;29;20106;-71
2022/03/15 04:05:30;;;;;;;8.57;1.67;;;29.60;82.20;;;;;;4953272;29;20019;-74
2022/03/15 04:08:01;;;;;;;5.40;0.95;;;30.50;79.60;;;;;;4933338;29;20054;-71
2022/03/15 04:10:30;;;;;;;3.90;1.00;;;31.50;77.60;;;;;;4927115;29;20472;-73
2022/03/15 04:12:58;;;;;;;7.90;1.25;;;31.70;78.80;;;;;;4933661;29;20058;-75
2022/03/15 04:15:26;;;;;;;7.80;1.10;;;31.10;77.70;;;;;;4932284;29;20046;-71
2022/03/15 04:17:53;;;;;;;7.20;0.93;;;31.00;77.70;;;;;;4929883;29;20369;-72
2022/03/15 04:20:21;;;;;;;4.65;0.80;;;30.80;78.80;;;;;;4914835;29;20033;-72
2022/03/15 04:22:48;;;;;;;10.52;0.95;;;31.20;78.30;;;;;;4931782;29;20659;-70
2022/03/15 04:25:15;;;;;;;3.17;0.70;;;31.10;78.70;;;;;;4932734;29;20083;-71
2022/03/15 04:27:43;;;;;;;4.97;0.85;;;31.10;79.90;;;;;;4933002;29;20043;-75
2022/03/15 04:30:10;;;;;;;4.90;1.08;;;30.80;79.20;;;;;;4934166;29;20106;-69
2022/03/15 04:32:38;;;;;;;9.48;1.20;;;29.90;79.90;;;;;;4933423;29;20051;-71
2022/03/15 04:35:05;;;;;;;6.20;0.95;;;29.10;83.00;;;;;;4916607;29;20056;-70
2022/03/15 04:37:33;;;;;;;7.25;1.02;;;28.80;83.60;;;;;;4933460;29;20472;-71
2022/03/15 04:40:00;;;;;;;7.68;1.30;;;29.00;83.60;;;;;;4914969;29;20043;-67
2022/03/15 04:42:28;;;;;;;6.63;0.90;;;29.10;83.50;;;;;;4897295;29;20151;-69
2022/03/15 04:44:55;;;;;;;4.88;1.00;;;29.70;82.40;;;;;;4920341;29;20109;-74
2022/03/15 04:47:23;;;;;;;7.43;0.93;;;30.80;80.80;;;;;;4932576;29;20062;-73
2022/03/15 04:49:50;;;;;;;6.00;1.25;;;31.90;77.80;;;;;;4933566;29;20546;-73
2022/03/15 04:52:17;;;;;;;6.68;0.73;;;31.80;76.80;;;;;;4933817;29;20036;-70
2022/03/15 04:54:46;;;;;;;5.20;1.25;;;31.60;77.50;;;;;;4933424;29;20022;-72
2022/03/15 04:57:13;;;;;;;6.10;0.88;;;30.80;78.90;;;;;;4932862;29;20028;-72
2022/03/15 04:59:40;;;;;;;6.82;0.90;;;30.00;81.20;;;;;;4932802;29;20020;-72
2022/03/15 05:02:08;;;;;;;4.95;1.15;;;29.50;81.20;;;;;;4933815;29;20536;-70
2022/03/15 05:04:35;;;;;;;9.35;1.20;;;28.80;84.60;;;;;;4933558;29;20476;-67
2022/03/15 05:07:03;;;;;;;6.93;1.00;;;28.30;83.80;;;;;;4916169;29;20036;-69
2022/03/15 05:09:30;;;;;;;6.03;1.02;;;27.90;84.60;;;;;;4910412;29;20024;-71
2022/03/15 05:11:58;;;;;;;6.18;0.93;;;27.40;85.40;;;;;;4915037;29;20385;-70
2022/03/15 05:14:26;;;;;;;6.18;1.27;;;27.00;86.70;;;;;;4916889;29;20031;-70
2022/03/15 05:16:53;;;;;;;5.15;1.15;;;27.20;86.50;;;;;;4933812;29;20028;-73
2022/03/15 05:19:21;;;;;;;10.23;1.48;;;28.10;84.70;;;;;;4903405;29;20024;-70
2022/03/15 05:21:48;;;;;;;7.78;0.75;;;29.40;81.40;;;;;;4914950;29;20016;-72
2022/03/15 05:24:16;;;;;;;7.07;1.17;;;30.30;78.90;;;;;;4915066;29;20025;-68
2022/03/15 05:26:43;;;;;;;10.18;1.00;;;31.40;77.20;;;;;;4932713;29;20032;-73
2022/03/15 05:29:12;;;;;;;5.13;1.00;;;32.30;76.80;;;;;;4920480;29;20075;-73
2022/03/15 05:31:39;;;;;;;6.22;0.77;;;32.40;77.10;;;;;;4913758;29;20556;-68
2022/03/15 05:34:06;;;;;;;6.88;1.13;;;31.90;77.10;;;;;;4914463;29;20044;-73
2022/03/15 05:36:34;;;;;;;9.13;1.60;;;30.90;78.70;;;;;;4933521;29;20090;-70
2022/03/15 05:39:01;;;;;;;9.48;1.58;;;29.80;81.50;;;;;;4922495;29;20039;-73
2022/03/15 05:41:28;;;;;;;8.52;1.33;;;28.80;83.50;;;;;;4914458;29;20028;-71
2022/03/15 05:43:56;;;;;;;8.50;1.40;;;27.90;85.70;;;;;;4924933;29;20100;-67
2022/03/15 05:46:24;;;;;;;7.53;1.70;;;27.20;86.80;;;;;;4935317;29;20060;-68
2022/03/15 05:48:52;;;;;;;6.43;0.70;;;26.80;88.60;;;;;;4923302;29;20056;-73
2022/03/15 05:51:20;;;;;;;6.78;0.93;;;26.20;89.70;;;;;;4916005;29;20032;-73
2022/03/15 05:53:47;;;;;;;7.88;1.25;;;25.90;89.80;;;;;;4914263;29;20028;-67
2022/03/15 05:56:14;;;;;;;17.85;2.75;;;25.70;90.50;;;;;;4929946;29;20030;-70
2022/03/15 05:58:43;;;;;;;8.40;1.35;;;25.60;90.70;;;;;;4926088;29;20020;-71
2022/03/15 06:01:10;;;;;;;6.78;1.30;;;25.60;91.20;;;;;;4917597;29;20039;-68
2022/03/15 06:03:38;;;;;;;6.75;1.65;;;25.50;91.00;;;;;;4917522;29;20437;-69
2022/03/15 06:06:06;;;;;;;8.45;1.00;;;25.60;91.00;;;;;;4914900;29;20058;-67
2022/03/15 06:08:33;;;;;;;8.07;1.55;;;25.50;91.60;;;;;;4929557;29;20107;-68
2022/03/15 06:11:02;;;;;;;9.20;1.25;;;25.40;91.80;;;;;;4917731;29;20068;-73
2022/03/15 06:13:29;;;;;;;7.75;1.25;;;25.50;91.80;;;;;;4917467;29;20845;-68
2022/03/15 06:15:57;;;;;;;5.43;1.25;;;25.50;91.60;;;;;;4914006;29;20028;-73
2022/03/15 06:18:25;;;;;;;7.03;1.00;;;25.50;91.80;;;;;;4930073;29;20024;-77
2022/03/15 06:20:52;;;;;;;5.28;1.20;;;25.50;91.70;;;;;;4899885;29;20365;-70
2022/03/15 06:23:22;;;;;;;6.32;1.00;;;25.90;91.50;;;;;;4917142;29;20032;-76
2022/03/15 06:25:49;;;;;;;10.43;1.55;;;26.20;91.20;;;;;;4929562;29;20058;-74
2022/03/15 06:28:16;;;;;;;6.05;1.00;;;26.10;91.10;;;;;;4930810;29;20510;-68
2022/03/15 06:30:45;;;;;;;6.10;1.67;;;26.00;91.30;;;;;;4934557;29;20146;-74
2022/03/15 06:33:54;;;;;;;9.93;1.90;;;25.70;91.40;;;;;;4918378;29;20079;-76
2022/03/15 06:36:21;;;;;;;8.23;1.67;;;25.50;92.00;;;;;;4930102;29;20131;-74
2022/03/15 06:38:53;;;;;;;9.23;1.73;;;25.30;92.60;;;;;;4918705;29;20086;-71
2022/03/15 06:41:21;;;;;;;6.70;1.20;;;25.10;92.30;;;;;;4954287;29;20118;-76
2022/03/15 06:43:49;;;;;;;8.45;1.13;;;25.00;92.60;;;;;;4944361;29;20428;-74
2022/03/15 06:46:16;;;;;;;6.28;1.13;;;24.90;91.80;;;;;;4918437;29;20049;-73
2022/03/15 06:48:43;;;;;;;7.35;1.13;;;24.90;91.90;;;;;;4926847;29;20024;-74
2022/03/15 06:51:11;;;;;;;7.13;1.27;;;25.10;91.80;;;;;;4899797;29;20579;-74
2022/03/15 06:53:40;;;;;;;8.57;1.63;;;25.20;92.10;;;;;;4917492;29;20032;-69
2022/03/15 06:56:08;;;;;;;11.82;1.80;;;25.30;92.40;;;;;;4915437;29;20483;-72
2022/03/15 06:58:36;;;;;;;9.35;1.77;;;25.30;92.70;;;;;;4916751;29;20020;-73
2022/03/15 07:01:16;;;;;;;9.75;1.35;;;25.50;92.50;;;;;;4917214;29;20031;-77
2022/03/15 07:04:23;;;;;;;6.90;1.23;;;25.50;92.20;;;;;;4914245;29;20051;-74
2022/03/15 07:06:52;;;;;;;6.43;0.93;;;25.50;92.50;;;;;;4923895;29;20036;-72
2022/03/15 07:09:19;;;;;;;9.52;1.77;;;25.70;92.20;;;;;;4924877;29;20027;-73
2022/03/15 07:11:47;;;;;;;9.60;2.17;;;26.00;91.80;;;;;;4951845;29;20032;-72
2022/03/15 07:14:15;;;;;;;6.97;1.70;;;26.10;91.10;;;;;;4935591;29;20016;-77
2022/03/15 07:16:42;;;;;;;9.27;1.92;;;26.00;90.70;;;;;;4943405;29;20027;-72
2022/03/15 07:19:14;;;;;;;9.25;1.90;;;25.80;90.90;;;;;;4954704;29;20041;-68
2022/03/15 07:21:41;;;;;;;5.53;1.70;;;25.50;91.10;;;;;;4954275;29;20031;-74
2022/03/15 07:24:10;;;;;;;8.27;1.33;;;25.30;91.40;;;;;;4950333;29;20531;-71
2022/03/15 07:26:42;;;;;;;7.50;1.77;;;25.20;91.80;;;;;;4934803;29;20070;-70
2022/03/15 07:29:11;;;;;;;9.48;1.95;;;25.00;92.00;;;;;;4945551;29;20023;-76
2022/03/15 07:31:50;;;;;;;8.80;1.45;;;24.80;92.30;;;;;;4950131;29;20468;-78
2022/03/15 07:34:18;;;;;;;8.07;1.15;;;24.60;92.00;;;;;;4945524;29;20070;-74
2022/03/15 07:36:45;;;;;;;8.93;1.45;;;24.50;92.30;;;;;;4934840;29;20028;-78
2022/03/15 07:39:13;;;;;;;9.52;2.28;;;24.30;92.80;;;;;;4934532;29;20074;-76
2022/03/15 07:41:40;;;;;;;8.18;1.38;;;24.20;93.10;;;;;;4934017;29;20024;-73
2022/03/15 07:44:12;;;;;;;9.30;1.52;;;24.10;93.50;;;;;;4934842;29;20090;-73
2022/03/15 07:46:40;;;;;;;11.25;2.20;;;23.90;93.70;;;;;;4917221;29;20452;-70
2022/03/15 07:49:08;;;;;;;7.80;1.90;;;23.70;93.40;;;;;;4934664;29;20016;-74
2022/03/15 07:51:36;;;;;;;11.23;1.95;;;23.60;93.60;;;;;;4929942;29;20059;-74
2022/03/15 07:54:03;;;;;;;7.47;1.88;;;23.50;93.70;;;;;;4917454;29;20020;-77
2022/03/15 07:56:32;;;;;;;12.15;2.83;;;23.40;94.00;;;;;;4934345;29;20028;-78
2022/03/15 07:58:59;;;;;;;7.18;2.03;;;23.30;94.40;;;;;;4934411;29;20027;-78
2022/03/15 08:01:26;;;;;;;16.48;2.47;;;23.20;94.60;;;;;;4909035;29;20074;-68
2022/03/15 08:03:54;;;;;;;7.95;1.55;;;23.10;94.90;;;;;;4917107;29;20035;-67
2022/03/15 08:06:21;;;;;;;11.20;3.08;;;23.00;95.20;;;;;;4934140;29;20031;-71
2022/03/15 08:08:49;;;;;;;13.02;1.80;;;23.00;95.50;;;;;;4934424;29;20028;-70
2022/03/15 08:11:17;;;;;;;11.23;1.95;;;22.90;95.50;;;;;;4932446;29;20019;-77
2022/03/15 08:13:44;;;;;;;6.72;1.65;;;22.90;96.20;;;;;;4917243;29;20034;-70
2022/03/15 08:16:12;;;;;;;9.40;1.80;;;22.80;95.90;;;;;;4929134;29;20488;-69
2022/03/15 08:18:43;;;;;;;8.77;1.98;;;22.80;96.00;;;;;;4934245;29;20039;-71
2022/03/15 08:21:11;;;;;;;8.43;1.92;;;22.80;96.30;;;;;;4931735;29;20030;-76
2022/03/15 08:23:38;;;;;;;8.70;1.92;;;22.70;96.40;;;;;;4915782;29;20544;-77
2022/03/15 08:26:06;;;;;;;8.73;2.30;;;22.70;96.70;;;;;;4910276;29;20028;-79
2022/03/15 08:28:35;;;;;;;10.68;2.30;;;22.70;96.60;;;;;;4933491;29;20038;-77
2022/03/15 08:31:05;;;;;;;11.10;1.95;;;22.70;97.30;;;;;;4934203;29;20043;-73
2022/03/15 08:33:33;;;;;;;9.10;2.38;;;22.70;97.30;;;;;;4898074;29;20596;-75
2022/03/15 08:36:04;;;;;;;9.25;2.92;;;22.80;97.70;;;;;;4926534;29;20725;-75
2022/03/15 08:38:39;;;;;;;12.50;3.03;;;22.70;98.20;;;;;;4915883;29;20031;-71
2022/03/15 08:41:06;;;;;;;11.70;4.25;;;22.70;98.40;;;;;;4933938;29;20028;-69
2022/03/15 08:43:34;;;;;;;16.50;4.30;;;22.60;99.60;;;;;;4934400;29;20027;-73
2022/03/15 08:46:01;;;;;;;11.05;2.55;;;22.60;99.90;;;;;;4933651;29;20515;-74
2022/03/15 08:48:28;;;;;;;12.70;2.67;;;22.60;99.90;;;;;;4933893;29;20032;-70
2022/03/15 08:50:56;;;;;;;16.45;2.20;;;22.50;99.90;;;;;;4934417;29;20032;-69
2022/03/15 08:53:23;;;;;;;11.60;2.40;;;22.50;99.90;;;;;;4934482;29;20035;-69
2022/03/15 08:55:50;;;;;;;13.60;2.25;;;22.40;99.90;;;;;;4934002;29;20020;-71
2022/03/15 08:58:18;;;;;;;12.07;2.15;;;22.40;99.90;;;;;;4934205;29;20484;-75
2022/03/15 09:00:45;;;;;;;12.50;1.65;;;22.30;99.90;;;;;;4917388;29;20437;-72
2022/03/15 09:03:12;;;;;;;9.68;2.65;;;22.20;99.90;;;;;;4934307;29;20027;-75
2022/03/15 09:05:40;;;;;;;9.93;2.03;;;22.10;99.90;;;;;;4916244;29;20031;-73
2022/03/15 09:08:07;;;;;;;11.18;2.22;;;22.00;99.90;;;;;;4933808;29;20035;-72
2022/03/15 09:10:35;;;;;;;14.88;4.45;;;22.00;99.90;;;;;;4917090;29;20032;-73
2022/03/15 09:13:03;;;;;;;12.20;1.95;;;21.90;99.90;;;;;;4933493;29;20028;-67
2022/03/15 09:15:31;;;;;;;8.18;1.73;;;21.90;99.90;;;;;;4934359;29;20026;-71
2022/03/15 09:17:59;;;;;;;6.70;1.55;;;21.90;99.90;;;;;;4934015;29;20031;-71
2022/03/15 09:20:26;;;;;;;12.52;1.45;;;21.90;99.90;;;;;;4933876;29;20147;-68
2022/03/15 09:22:54;;;;;;;11.88;2.45;;;21.90;99.90;;;;;;4933804;29;20028;-70
2022/03/15 09:25:22;;;;;;;12.27;1.85;;;21.90;99.90;;;;;;4931500;29;20016;-73
2022/03/15 09:27:50;;;;;;;8.52;2.30;;;21.90;99.90;;;;;;4916671;29;20091;-72
2022/03/15 09:30:18;;;;;;;18.70;5.70;;;21.80;99.90;;;;;;4933347;29;20686;-71
2022/03/15 09:32:45;;;;;;;9.35;1.98;;;21.90;99.90;;;;;;4934351;29;20091;-73
2022/03/15 09:35:13;;;;;;;6.47;2.17;;;21.80;99.90;;;;;;4935062;29;20027;-71
2022/03/15 09:37:45;;;;;;;9.50;1.75;;;21.70;99.90;;;;;;4937059;29;20032;-71
2022/03/15 09:40:12;;;;;;;;;;;21.60;99.90;;;;;;4937465;29;20015;-69
2022/03/15 09:42:42;;;;;;;8.55;2.00;;;21.60;99.90;;;;;;4936321;29;19907;-70
2022/03/15 09:45:10;;;;;;;12.05;3.67;;;21.50;99.90;;;;;;4919890;29;20031;-74
2022/03/15 09:47:40;;;;;;;9.82;2.60;;;21.50;99.90;;;;;;4937158;29;20063;-73
2022/03/15 09:50:08;;;;;;;6.85;1.88;;;21.50;99.90;;;;;;4937500;29;20032;-75
2022/03/15 09:52:37;;;;;;;10.15;1.42;;;21.40;99.90;;;;;;4937375;29;20154;-70
2022/03/15 09:55:05;;;;;;;13.00;2.53;;;21.50;99.90;;;;;;4937351;29;20062;-72
2022/03/15 09:57:33;;;;;;;9.77;1.17;;;21.50;99.90;;;;;;4937251;29;20456;-70
2022/03/15 10:00:01;;;;;;;9.75;1.98;;;21.50;99.90;;;;;;4937044;29;20472;-71
2022/03/15 10:02:29;;;;;;;9.90;1.65;;;21.50;99.90;;;;;;4936979;29;20031;-71
2022/03/15 10:04:56;;;;;;;7.28;1.23;;;21.50;99.90;;;;;;4919929;29;20028;-71
2022/03/15 10:07:23;;;;;;;6.40;1.05;;;21.50;99.90;;;;;;4936671;29;20038;-70
2022/03/15 10:09:51;;;;;;;6.22;1.20;;;21.60;99.90;;;;;;4936564;29;20552;-68
2022/03/15 10:12:19;;;;;;;10.23;1.45;;;21.60;99.90;;;;;;4937053;29;20400;-69
2022/03/15 10:14:49;;;;;;;10.70;1.50;;;21.70;99.90;;;;;;4919557;29;20551;-70
2022/03/15 10:17:16;;;;;;;7.97;1.67;;;21.70;99.90;;;;;;4936418;29;20067;-71
2022/03/15 10:19:57;;;;;;;10.65;1.38;;;21.80;99.90;;;;;;4936305;29;20060;-69
2022/03/15 10:22:26;;;;;;;5.72;1.42;;;21.80;99.90;;;;;;4936053;29;20127;-69
2022/03/15 10:24:54;;;;;;;6.75;1.38;;;21.80;99.90;;;;;;4936689;29;20038;-68
2022/03/15 10:27:22;;;;;;;5.95;1.30;;;21.80;99.90;;;;;;4935663;29;20400;-68
2022/03/15 10:29:50;;;;;;;6.50;1.75;;;21.70;99.90;;;;;;4935743;29;20408;-69
2022/03/15 10:32:18;;;;;;;7.38;1.55;;;21.70;99.90;;;;;;4936157;29;20046;-67
2022/03/15 10:34:45;;;;;;;5.03;1.20;;;21.60;99.90;;;;;;4936324;29;20388;-68
2022/03/15 10:37:13;;;;;;;5.93;1.35;;;21.60;99.90;;;;;;4936532;29;20366;-67
2022/03/15 10:39:40;;;;;;;6.75;1.70;;;21.50;99.90;;;;;;4936294;29;20075;-69
2022/03/15 10:42:08;;;;;;;5.40;0.80;;;21.60;99.90;;;;;;4936132;29;20417;-68
2022/03/15 10:44:37;;;;;;;3.97;0.80;;;21.60;99.90;;;;;;4934037;29;20031;-69
2022/03/15 10:47:14;;;;;;;6.00;1.08;;;21.70;99.90;;;;;;4936232;29;20039;-69
2022/03/15 10:49:54;;;;;;;8.57;0.90;;;21.60;99.90;;;;;;4936149;29;20365;-69
2022/03/15 10:52:30;;;;;;;8.80;1.48;;;21.50;99.90;;;;;;4918527;29;20118;-69
2022/03/15 10:55:08;;;;;;;9.45;1.35;;;21.30;99.90;;;;;;4918854;29;20182;-68
2022/03/15 10:58:03;;;;;;;13.38;2.58;;;21.10;99.90;;;;;;4918449;29;20035;-68
2022/03/15 11:00:35;;;;;;;6.35;0.77;;;21.10;99.90;;;;;;4932429;29;20099;-67
2022/03/15 11:03:05;;;;;;;;;;;21.00;99.90;;;;;;4917379;29;20035;-68
2022/03/15 11:05:35;;;;;;;5.93;0.90;;;21.00;99.90;;;;;;4917155;29;19962;-68
2022/03/15 11:08:11;;;;;;;2.28;0.68;;;20.90;99.90;;;;;;4925195;29;20059;-68
2022/03/15 11:10:40;;;;;;;3.90;0.80;;;20.80;99.90;;;;;;4935636;29;20052;-69
2022/03/15 11:13:12;;;;;;;3.28;1.05;;;20.70;99.90;;;;;;4935987;29;20499;-69
2022/03/15 11:15:44;;;;;;;;;;;20.70;99.90;;;;;;4936415;29;20036;-69
2022/03/15 11:18:12;;;;;;;5.57;1.08;;;20.70;99.90;;;;;;4935608;29;19930;-69
2022/03/15 11:20:45;;;;;;;7.35;2.70;;;20.70;99.90;;;;;;4935553;29;20028;-67
2022/03/15 11:23:15;;;;;;;4.75;2.00;;;20.70;99.90;;;;;;4935667;29;20031;-68
2022/03/15 11:25:56;;;;;;;3.63;1.38;;;20.80;99.90;;;;;;4935657;29;20470;-66
2022/03/15 11:28:32;;;;;;;4.93;0.90;;;20.80;99.90;;;;;;4935028;29;20042;-67
2022/03/15 11:31:00;;;;;;;4.78;0.77;;;20.80;99.90;;;;;;4935572;29;20020;-67
2022/03/15 11:33:29;;;;;;;8.63;1.10;;;20.70;99.90;;;;;;4934832;29;20040;-69
2022/03/15 11:36:03;;;;;;;;;;;20.60;99.90;;;;;;4935275;29;20048;-68
2022/03/15 11:38:31;;;;;;;7.40;1.30;;;20.60;99.90;;;;;;4935203;29;20327;-69
2022/03/15 11:40:58;;;;;;;4.82;1.42;;;20.50;99.90;;;;;;4935493;29;20036;-69
2022/03/15 11:44:11;;;;;;;9.48;1.35;;;20.60;99.90;;;;;;4935537;29;20056;-67
2022/03/15 11:46:59;;;;;;;7.82;1.40;;;20.50;99.90;;;;;;4892690;29;20101;-68
2022/03/15 11:50:03;;;;;;;11.38;2.00;;;20.50;99.90;;;;;;4935354;29;20064;-69
2022/03/15 11:53:00;;;;;;;6.43;1.60;;;20.50;99.90;;;;;;4851429;29;20118;-68
2022/03/15 11:55:46;;;;;;;6.45;1.83;;;20.40;99.90;;;;;;4934702;29;20058;-68
2022/03/15 11:58:24;;;;;;;9.35;1.40;;;20.40;99.90;;;;;;4935135;29;20141;-68
2022/03/15 12:00:53;;;;;;;9.98;2.13;;;20.40;99.90;;;;;;4935016;29;20071;-69
2022/03/15 12:03:26;;;;;;;8.00;1.48;;;20.40;99.90;;;;;;4934894;29;20433;-70
2022/03/15 12:05:59;;;;;;;8.52;1.80;;;20.40;99.90;;;;;;4934894;29;20480;-68
2022/03/15 12:08:28;;;;;;;8.52;1.63;;;20.40;99.90;;;;;;4934317;29;20039;-67
2022/03/15 12:10:57;;;;;;;7.50;1.20;;;20.30;99.90;;;;;;4934665;29;20465;-67
2022/03/15 12:13:47;;;;;;;6.95;1.70;;;20.40;99.90;;;;;;4934790;29;20032;-67
2022/03/15 12:16:24;;;;;;;9.50;1.60;;;20.40;99.90;;;;;;4934792;29;20035;-67
2022/03/15 12:19:06;;;;;;;11.70;2.05;;;20.40;99.90;;;;;;4934291;29;20074;-68
2022/03/15 12:21:49;;;;;;;13.07;1.80;;;20.30;99.90;;;;;;4934106;29;20060;-69
2022/03/15 12:24:29;;;;;;;9.73;1.60;;;20.30;99.90;;;;;;4932129;29;20023;-66
2022/03/15 12:26:59;;;;;;;7.82;1.42;;;20.30;99.90;;;;;;4932381;29;20034;-69
2022/03/15 12:29:27;;;;;;;8.98;1.77;;;20.30;99.90;;;;;;4933091;29;20153;-69
2022/03/15 12:31:57;;;;;;;6.63;1.70;;;20.30;99.90;;;;;;4932746;29;20389;-67
2022/03/15 12:34:29;;;;;;;5.88;1.40;;;20.30;99.90;;;;;;4932672;29;20091;-69
2022/03/15 12:37:01;;;;;;;6.10;1.13;;;20.30;99.90;;;;;;4915328;29;20039;-69
2022/03/15 12:39:33;;;;;;;7.90;1.63;;;20.30;99.90;;;;;;4933048;29;20106;-68
2022/03/15 12:42:15;;;;;;;9.38;2.20;;;20.30;99.90;;;;;;4932888;29;20028;-67
2022/03/15 12:44:49;;;;;;;11.27;1.80;;;20.20;99.90;;;;;;4932808;29;20039;-68
2022/03/15 12:47:19;;;;;;;11.00;1.33;;;20.20;99.90;;;;;;4932191;29;20122;-67
2022/03/15 12:50:07;;;;;;;5.93;1.33;;;20.20;99.90;;;;;;4914674;29;20159;-69
2022/03/15 12:52:40;;;;;;;8.15;1.88;;;20.20;99.90;;;;;;4932769;29;20119;-70
2022/03/15 12:55:18;;;;;;;13.00;3.28;;;20.20;99.90;;;;;;4933238;29;20037;-68
2022/03/15 12:57:47;;;;;;;9.00;1.80;;;20.20;99.90;;;;;;4934560;29;20023;-68